createdAt,value
2018-03-16T00:01:31.198Z,17.35
2018-03-16T00:03:58.764Z,16.17
2018-03-16T00:06:26.213Z,16.12
2018-03-16T00:08:53.678Z,17.90
2018-03-16T00:11:21.132Z,20.77
2018-03-16T00:13:48.601Z,15.63
2018-03-16T00:16:16.046Z,17.83
2018-03-16T00:18:43.524Z,16.50
2018-03-16T00:21:10.952Z,17.02
2018-03-16T00:23:38.412Z,17.42
2018-03-16T00:26:06.464Z,16.50
2018-03-16T00:28:34.689Z,17.27
2018-03-16T00:31:02.140Z,16.20
2018-03-16T00:33:29.611Z,17.83
2018-03-16T00:35:57.078Z,18.35
2018-03-16T00:38:24.557Z,18.37
2018-03-16T00:40:52.021Z,18.50
2018-03-16T00:43:19.471Z,20.20
2018-03-16T00:45:46.934Z,21.23
2018-03-16T00:48:14.424Z,24.65
2018-03-16T00:50:41.879Z,23.52
2018-03-16T00:53:09.323Z,19.40
2018-03-16T00:55:36.792Z,26.60
2018-03-16T00:58:04.251Z,24.95
2018-03-16T01:00:31.708Z,23.60
2018-03-16T01:02:59.172Z,23.92
2018-03-16T01:05:26.621Z,22.35
2018-03-16T01:07:54.071Z,25.27
2018-03-16T01:10:22.288Z,25.65
2018-03-16T01:12:50.539Z,24.35
2018-03-16T01:15:17.980Z,29.00
2018-03-16T01:17:45.433Z,24.42
2018-03-16T01:20:12.937Z,26.20
2018-03-16T01:22:41.184Z,26.35
2018-03-16T01:25:08.634Z,27.27
2018-03-16T01:27:36.165Z,27.05
2018-03-16T01:30:03.620Z,26.10
2018-03-16T01:32:31.208Z,25.50
2018-03-16T01:34:58.736Z,29.80
2018-03-16T01:37:26.179Z,29.52
2018-03-16T01:39:53.640Z,25.00
2018-03-16T01:42:21.102Z,28.90
2018-03-16T01:44:48.610Z,25.98
2018-03-16T01:47:17.471Z,26.27
2018-03-16T01:49:45.039Z,28.65
2018-03-16T01:52:12.484Z,33.22
2018-03-16T01:54:39.961Z,31.10
2018-03-16T01:57:07.409Z,29.42
2018-03-16T01:59:34.884Z,34.53
2018-03-16T02:02:02.340Z,31.92
2018-03-16T02:04:29.812Z,32.03
2018-03-16T02:06:58.030Z,31.37
2018-03-16T02:09:25.503Z,28.92
2018-03-16T02:11:52.958Z,34.45
2018-03-16T02:14:20.427Z,34.45
2018-03-16T02:16:47.916Z,32.20
2018-03-16T02:19:15.441Z,29.70
2018-03-16T02:21:42.891Z,40.22
2018-03-16T02:24:10.969Z,31.60
2018-03-16T02:26:38.420Z,33.55
2018-03-16T02:29:05.868Z,40.65
2018-03-16T02:31:33.339Z,36.45
2018-03-16T02:34:00.853Z,38.88
2018-03-16T02:36:28.314Z,40.28
2018-03-16T02:38:55.742Z,35.50
2018-03-16T02:41:23.216Z,41.85
2018-03-16T02:43:50.676Z,35.70
2018-03-16T02:46:18.143Z,41.55
2018-03-16T02:48:45.584Z,34.80
2018-03-16T02:51:13.045Z,35.80
2018-03-16T02:53:40.567Z,38.58
2018-03-16T02:56:09.389Z,40.55
2018-03-16T02:58:36.857Z,38.50
2018-03-16T03:01:04.404Z,39.05
2018-03-16T03:03:31.849Z,36.42
2018-03-16T03:05:59.290Z,44.28
2018-03-16T03:08:26.748Z,38.20
2018-03-16T03:10:54.197Z,35.80
2018-03-16T03:13:22.424Z,36.42
2018-03-16T03:15:49.891Z,36.33
2018-03-16T03:18:17.351Z,39.78
2018-03-16T03:20:44.806Z,36.45
2018-03-16T03:23:12.294Z,37.80
2018-03-16T03:25:40.490Z,38.20
2018-03-16T03:28:07.955Z,38.65
2018-03-16T03:30:35.409Z,38.10
2018-03-16T03:33:02.860Z,38.78
2018-03-16T03:35:30.310Z,35.50
2018-03-16T03:37:57.758Z,36.38
2018-03-16T03:40:25.218Z,36.13
2018-03-16T03:42:52.644Z,37.38
2018-03-16T03:45:20.889Z,34.70
2018-03-16T03:47:48.340Z,34.50
2018-03-16T03:50:15.832Z,33.25
2018-03-16T03:52:44.037Z,31.70
2018-03-16T03:55:12.403Z,32.58
2018-03-16T03:57:39.852Z,38.85
2018-03-16T04:00:08.124Z,32.90
2018-03-16T04:02:36.333Z,34.50
2018-03-16T04:05:03.796Z,34.10
2018-03-16T04:07:31.240Z,31.65
2018-03-16T04:09:58.716Z,31.30
2018-03-16T04:12:26.152Z,34.63
2018-03-16T04:14:53.621Z,37.05
2018-03-16T04:17:21.058Z,31.35
2018-03-16T04:19:48.517Z,26.65
2018-03-16T04:22:16.018Z,31.50
2018-03-16T04:24:43.447Z,35.05
2018-03-16T04:27:10.918Z,32.75
2018-03-16T04:29:38.373Z,31.23
2018-03-16T04:32:05.846Z,30.70
2018-03-16T04:34:33.365Z,30.23
2018-03-16T04:37:00.956Z,32.55
2018-03-16T04:39:29.321Z,37.33
2018-03-16T04:41:56.783Z,28.20
2018-03-16T04:44:24.231Z,27.00
2018-03-16T04:46:51.707Z,35.20
2018-03-16T04:49:19.231Z,29.25
2018-03-16T04:51:46.676Z,27.52
2018-03-16T04:54:14.150Z,32.97
2018-03-16T04:56:41.599Z,25.88
2018-03-16T04:59:09.042Z,25.77
2018-03-16T05:01:36.623Z,30.40
2018-03-16T05:04:04.112Z,30.05
2018-03-16T05:06:31.590Z,28.15
2018-03-16T05:08:59.998Z,26.55
2018-03-16T05:11:27.440Z,29.40
2018-03-16T05:13:54.924Z,26.05
2018-03-16T05:16:22.371Z,27.60
2018-03-16T05:18:49.872Z,28.60
2018-03-16T05:21:18.098Z,29.95
2018-03-16T05:23:45.542Z,26.42
2018-03-16T05:26:13.054Z,29.83
2018-03-16T05:28:40.507Z,27.65
2018-03-16T05:31:07.975Z,24.42
2018-03-16T05:33:36.197Z,26.87
2018-03-16T05:36:03.676Z,26.83
2018-03-16T05:38:31.114Z,27.48
2018-03-16T05:40:58.605Z,22.98
2018-03-16T05:43:26.057Z,28.62
2018-03-16T05:45:53.542Z,28.25
2018-03-16T05:48:21.849Z,27.77
2018-03-16T05:50:49.299Z,23.60
2018-03-16T05:53:16.770Z,27.25
2018-03-16T05:55:44.216Z,26.65
2018-03-16T05:58:11.677Z,26.52
2018-03-16T06:00:39.131Z,25.67
2018-03-16T06:03:06.621Z,25.70
2018-03-16T06:05:34.053Z,22.55
2018-03-16T06:08:01.514Z,23.83
2018-03-16T06:10:28.992Z,22.95
2018-03-16T06:12:56.466Z,23.48
2018-03-16T06:15:23.908Z,22.73
2018-03-16T06:17:51.431Z,24.80
2018-03-16T06:20:19.008Z,24.73
2018-03-16T06:22:46.491Z,22.33
2018-03-16T06:25:13.954Z,24.48
2018-03-16T06:27:41.408Z,23.33
2018-03-16T06:30:09.625Z,23.58
2018-03-16T06:32:37.319Z,24.50
2018-03-16T06:35:04.772Z,26.02
2018-03-16T06:37:32.221Z,24.45
2018-03-16T06:39:59.700Z,25.80
2018-03-16T06:42:27.232Z,27.08
2018-03-16T06:44:54.838Z,27.98
2018-03-16T06:47:22.935Z,25.70
2018-03-16T06:49:50.396Z,29.48
2018-03-16T06:52:17.851Z,25.10
2018-03-16T06:54:45.396Z,22.67
2018-03-16T06:57:12.977Z,24.40
2018-03-16T06:59:40.461Z,24.70
2018-03-16T07:02:07.912Z,20.65
2018-03-16T07:04:36.996Z,24.87
2018-03-16T07:07:04.461Z,22.40
2018-03-16T07:09:31.927Z,22.80
2018-03-16T07:11:59.396Z,23.27
2018-03-16T07:14:26.877Z,20.95
2018-03-16T07:16:54.332Z,22.67
2018-03-16T07:19:22.556Z,20.48
2018-03-16T07:21:50.039Z,21.50
2018-03-16T07:24:17.517Z,20.10
2018-03-16T07:26:49.012Z,19.27
2018-03-16T07:29:16.465Z,19.20
2018-03-16T07:31:43.928Z,23.87
2018-03-16T07:34:11.349Z,18.90
2018-03-16T07:36:38.826Z,20.85
2018-03-16T07:39:06.364Z,19.58
2018-03-16T07:41:33.820Z,20.60
2018-03-16T07:44:01.263Z,22.52
2018-03-16T07:46:28.741Z,24.12
2018-03-16T07:48:56.207Z,21.40
2018-03-16T07:51:23.726Z,20.42
2018-03-16T07:53:51.958Z,20.65
2018-03-16T07:56:19.455Z,22.08
2018-03-16T07:58:47.655Z,20.80
2018-03-16T08:01:15.135Z,18.75
2018-03-16T08:03:42.584Z,18.45
2018-03-16T08:06:10.069Z,18.73
2018-03-16T08:08:37.506Z,19.55
2018-03-16T08:11:04.984Z,19.02
2018-03-16T08:13:32.420Z,23.27
2018-03-16T08:15:59.898Z,19.62
2018-03-16T08:18:27.336Z,19.30
2018-03-16T08:20:54.785Z,22.90
2018-03-16T08:23:22.247Z,21.60
2018-03-16T08:25:49.692Z,26.00
2018-03-16T08:28:17.168Z,22.40
2018-03-16T08:30:44.604Z,21.70
2018-03-16T08:33:12.071Z,22.58
2018-03-16T08:35:39.507Z,21.23
2018-03-16T08:38:07.747Z,19.62
2018-03-16T08:40:35.959Z,26.10
2018-03-16T08:43:03.423Z,20.62
2018-03-16T08:45:31.652Z,22.85
2018-03-16T08:47:59.874Z,21.10
2018-03-16T08:50:27.328Z,23.35
2018-03-16T08:52:55.583Z,24.00
2018-03-16T08:55:23.017Z,24.58
2018-03-16T08:57:50.496Z,21.50
2018-03-16T09:00:17.963Z,24.77
2018-03-16T09:02:45.429Z,27.05
2018-03-16T09:05:13.661Z,25.90
2018-03-16T09:07:41.101Z,21.17
2018-03-16T09:10:09.333Z,22.60
2018-03-16T09:12:36.783Z,22.55
2018-03-16T09:15:04.248Z,22.83
2018-03-16T09:17:31.691Z,18.95
2018-03-16T09:19:59.167Z,22.83
2018-03-16T09:22:26.607Z,24.55
2018-03-16T09:24:54.096Z,23.70
2018-03-16T09:27:21.549Z,22.48
2018-03-16T09:29:49.780Z,23.05
2018-03-16T09:32:17.293Z,20.37
2018-03-16T09:34:45.528Z,21.92
2018-03-16T09:37:12.961Z,23.90
2018-03-16T09:39:40.440Z,19.73
2018-03-16T09:42:07.895Z,21.00
2018-03-16T09:44:35.363Z,21.05
2018-03-16T09:47:02.933Z,27.13
2018-03-16T09:49:30.408Z,20.55
2018-03-16T09:51:58.643Z,27.80
2018-03-16T09:54:26.106Z,20.90
2018-03-16T09:56:53.597Z,21.37
2018-03-16T09:59:21.822Z,21.80
2018-03-16T10:01:49.308Z,21.60
2018-03-16T10:04:16.759Z,19.62
2018-03-16T10:06:44.234Z,17.00
2018-03-16T10:09:11.687Z,22.65
2018-03-16T10:11:39.228Z,20.10
2018-03-16T10:14:07.798Z,15.32
2018-03-16T10:16:41.171Z,18.37
2018-03-16T10:19:08.671Z,14.57
2018-03-16T10:21:36.216Z,17.42
2018-03-16T10:24:04.545Z,13.40
2018-03-16T10:26:32.040Z,11.80
2018-03-16T10:28:59.527Z,13.73
2018-03-16T10:31:27.787Z,14.18
2018-03-16T10:33:55.999Z,14.25
2018-03-16T10:36:24.235Z,13.57
2018-03-16T10:38:51.737Z,15.40
2018-03-16T10:41:19.220Z,12.40
2018-03-16T10:43:46.740Z,12.55
2018-03-16T10:46:14.205Z,12.82
2018-03-16T10:48:41.677Z,13.55
2018-03-16T10:51:09.137Z,13.80
2018-03-16T10:53:36.605Z,11.95
2018-03-16T10:56:04.080Z,13.07
2018-03-16T10:58:31.561Z,11.07
2018-03-16T11:00:59.799Z,11.98
2018-03-16T11:03:33.031Z,10.98
2018-03-16T11:06:02.224Z,11.75
2018-03-16T11:08:30.910Z,10.98
2018-03-16T11:10:59.121Z,9.85
2018-03-16T11:13:26.663Z,9.82
2018-03-16T11:15:54.135Z,10.32
2018-03-16T11:18:21.618Z,10.40
2018-03-16T11:20:49.086Z,10.85
2018-03-16T11:23:16.669Z,12.98
2018-03-16T11:25:44.197Z,8.13
2018-03-16T11:28:11.649Z,8.75
2018-03-16T11:30:39.734Z,8.77
2018-03-16T11:33:07.335Z,9.77
2018-03-16T11:35:35.537Z,8.82
2018-03-16T11:38:03.010Z,9.07
2018-03-16T11:40:30.499Z,9.25
2018-03-16T11:42:57.985Z,7.55
2018-03-16T11:45:25.461Z,8.27
2018-03-16T11:47:52.956Z,8.57
2018-03-16T11:50:20.422Z,7.60
2018-03-16T11:52:47.943Z,12.82
2018-03-16T11:55:15.399Z,7.80
2018-03-16T11:57:42.845Z,8.95
2018-03-16T12:00:10.342Z,8.73
2018-03-16T12:02:37.781Z,8.68
2018-03-16T12:05:05.336Z,10.43
2018-03-16T12:07:32.781Z,9.77
2018-03-16T12:10:00.251Z,9.32
2018-03-16T12:12:27.721Z,8.07
2018-03-16T12:14:55.299Z,11.30
2018-03-16T12:17:22.753Z,8.88
2018-03-16T12:19:50.968Z,9.47
2018-03-16T12:22:18.461Z,8.68
2018-03-16T12:24:45.960Z,7.93
2018-03-16T12:27:13.451Z,8.65
2018-03-16T12:29:40.915Z,7.85
2018-03-16T12:32:08.383Z,12.63
2018-03-16T12:34:35.845Z,6.07
2018-03-16T12:37:04.773Z,6.93
2018-03-16T12:39:32.246Z,6.30
2018-03-16T12:41:59.723Z,6.47
2018-03-16T12:44:27.179Z,5.40
2018-03-16T12:46:54.651Z,6.60
2018-03-16T12:49:22.120Z,4.97
2018-03-16T12:51:49.599Z,5.65
2018-03-16T12:54:17.830Z,4.32
2018-03-16T12:56:45.286Z,8.48
2018-03-16T12:59:15.635Z,14.32
2018-03-16T13:01:46.872Z,14.82
2018-03-16T13:04:20.379Z,16.37
2018-03-16T13:06:55.562Z,15.77
2018-03-16T13:11:57.170Z,18.15
2018-03-16T13:14:24.661Z,17.25
2018-03-16T13:16:52.876Z,15.07
2018-03-16T13:19:20.364Z,15.55
2018-03-16T13:21:47.816Z,11.70
2018-03-16T13:24:15.273Z,15.90
2018-03-16T13:26:42.761Z,14.10
2018-03-16T13:29:11.480Z,10.50
2018-03-16T13:31:38.940Z,11.60
2018-03-16T13:34:06.395Z,14.07
2018-03-16T13:36:33.873Z,10.68
2018-03-16T13:39:01.390Z,12.30
2018-03-16T13:41:28.877Z,11.20
2018-03-16T13:43:56.340Z,14.38
2018-03-16T13:46:23.838Z,12.55
2018-03-16T13:48:52.101Z,16.10
2018-03-16T13:51:20.920Z,12.15
2018-03-16T13:53:49.144Z,12.93
2018-03-16T13:56:16.629Z,11.50
2018-03-16T13:58:44.849Z,12.80
2018-03-16T14:01:12.298Z,11.25
2018-03-16T14:03:39.768Z,11.32
2018-03-16T14:06:07.296Z,12.45
2018-03-16T14:08:34.764Z,13.45
2018-03-16T14:11:02.210Z,10.77
2018-03-16T14:13:29.672Z,10.32
2018-03-16T14:15:57.129Z,12.60
2018-03-16T14:18:24.648Z,10.68
2018-03-16T14:20:52.964Z,11.07
2018-03-16T14:23:20.420Z,14.00
2018-03-16T14:25:47.995Z,9.80
2018-03-16T14:28:15.457Z,10.20
2018-03-16T14:30:42.972Z,9.30
2018-03-16T14:33:11.208Z,12.90
2018-03-16T14:35:38.697Z,10.55
2018-03-16T14:38:06.924Z,12.07
2018-03-16T14:40:34.392Z,10.30
2018-03-16T14:43:01.839Z,10.77
2018-03-16T14:45:30.588Z,14.75
2018-03-16T14:47:58.061Z,10.07
2018-03-16T14:50:25.528Z,10.93
2018-03-16T14:52:52.984Z,11.50
2018-03-16T14:55:20.466Z,12.13
2018-03-16T14:57:47.916Z,14.13
2018-03-16T15:00:15.390Z,9.68
2018-03-16T15:02:42.877Z,12.00
2018-03-16T15:05:10.337Z,11.20
2018-03-16T15:07:37.807Z,11.48
2018-03-16T15:10:05.315Z,10.40
2018-03-16T15:12:32.708Z,9.88
2018-03-16T15:15:00.168Z,13.90
2018-03-16T15:17:27.621Z,13.45
2018-03-16T15:19:55.186Z,12.73
2018-03-16T15:22:22.693Z,16.17
2018-03-16T15:24:50.138Z,15.55
2018-03-16T15:27:17.605Z,13.77
2018-03-16T15:29:45.069Z,15.32
2018-03-16T15:32:13.289Z,17.67
2018-03-16T15:34:40.803Z,15.63
2018-03-16T15:37:08.295Z,14.73
2018-03-16T15:39:35.744Z,16.35
2018-03-16T15:42:03.218Z,21.80
2018-03-16T15:44:30.684Z,17.65
2018-03-16T15:46:58.165Z,14.23
2018-03-16T15:49:25.606Z,16.75
2018-03-16T15:51:53.065Z,16.90
2018-03-16T15:54:20.514Z,20.50
2018-03-16T15:56:48.001Z,17.05
2018-03-16T15:59:15.508Z,16.00
2018-03-16T16:01:42.973Z,15.98
2018-03-16T16:04:10.422Z,14.38
2018-03-16T16:06:37.916Z,16.15
2018-03-16T16:09:05.473Z,18.12
2018-03-16T16:11:32.959Z,21.17
2018-03-16T16:14:01.175Z,17.40
2018-03-16T16:16:28.618Z,18.42
2018-03-16T16:18:56.098Z,17.25
2018-03-16T16:21:24.312Z,20.17
2018-03-16T16:23:52.545Z,18.25
2018-03-16T16:26:20.016Z,19.37
2018-03-16T16:28:47.572Z,18.02
2018-03-16T16:31:15.008Z,19.35
2018-03-16T16:33:42.504Z,16.23
2018-03-16T16:36:10.077Z,16.48
2018-03-16T16:38:38.273Z,15.70
2018-03-16T16:41:05.739Z,18.35
2018-03-16T16:43:33.202Z,15.13
2018-03-16T16:46:00.656Z,15.60
2018-03-16T16:48:28.224Z,18.35
2018-03-16T16:50:55.674Z,17.55
2018-03-16T16:53:23.143Z,15.07
2018-03-16T16:55:50.685Z,13.48
2018-03-16T16:58:18.111Z,12.75
2018-03-16T17:00:46.341Z,18.73
2018-03-16T17:03:15.875Z,11.90
2018-03-16T17:05:43.478Z,12.60
2018-03-16T17:08:10.937Z,14.90
2018-03-16T17:10:38.440Z,10.93
2018-03-16T17:13:05.872Z,12.75
2018-03-16T17:15:33.351Z,12.60
2018-03-16T17:18:00.796Z,12.45
2018-03-16T17:20:28.245Z,14.07
2018-03-16T17:22:55.686Z,12.70
2018-03-16T17:25:23.629Z,15.45
2018-03-16T17:27:51.075Z,19.10
2018-03-16T17:30:18.551Z,13.52
2018-03-16T17:32:46.037Z,15.02
2018-03-16T17:35:13.520Z,15.23
2018-03-16T17:37:41.801Z,16.80
2018-03-16T17:40:10.036Z,12.07
2018-03-16T17:42:37.501Z,19.10
2018-03-16T17:45:04.945Z,16.37
2018-03-16T17:47:32.391Z,13.40
2018-03-16T17:49:59.828Z,9.85
2018-03-16T17:52:27.411Z,12.25
2018-03-16T17:54:54.856Z,10.57
2018-03-16T17:57:22.336Z,8.73
2018-03-16T17:59:49.765Z,11.27
2018-03-16T18:02:17.241Z,8.25
2018-03-16T18:04:44.739Z,9.02
2018-03-16T18:07:13.059Z,8.38
2018-03-16T18:09:40.502Z,10.38
2018-03-16T18:12:07.978Z,7.97
2018-03-16T18:14:35.472Z,6.57
2018-03-16T18:17:02.880Z,6.55
2018-03-16T18:19:30.342Z,9.82
2018-03-16T18:21:57.792Z,8.32
2018-03-16T18:24:25.288Z,8.70
2018-03-16T18:26:53.404Z,9.20
2018-03-16T18:29:20.878Z,10.55
2018-03-16T18:31:48.381Z,8.95
2018-03-16T18:34:15.820Z,9.98
2018-03-16T18:36:43.266Z,12.23
2018-03-16T18:39:10.721Z,7.32
2018-03-16T18:41:38.172Z,8.30
2018-03-16T18:44:06.367Z,8.48
2018-03-16T18:46:33.830Z,8.75
2018-03-16T18:49:01.280Z,8.00
2018-03-16T18:51:28.728Z,7.87
2018-03-16T18:53:56.202Z,8.20
2018-03-16T18:56:23.668Z,8.55
2018-03-16T18:58:51.879Z,7.18
2018-03-16T19:01:19.377Z,9.10
2018-03-16T19:03:46.806Z,7.62
2018-03-16T19:06:14.266Z,6.60
2018-03-16T19:08:41.712Z,8.23
2018-03-16T19:11:09.180Z,8.88
2018-03-16T19:13:36.628Z,7.10
2018-03-16T19:16:04.127Z,8.35
2018-03-16T19:18:31.712Z,6.95
2018-03-16T19:20:59.168Z,6.20
2018-03-16T19:23:26.607Z,9.57
2018-03-16T19:25:54.845Z,7.85
2018-03-16T19:28:22.313Z,8.05
2018-03-16T19:30:49.759Z,8.63
2018-03-16T19:33:17.258Z,7.60
2018-03-16T19:35:45.500Z,7.55
2018-03-16T19:38:12.955Z,7.57
2018-03-16T19:40:40.397Z,7.85
2018-03-16T19:43:07.855Z,8.57
2018-03-16T19:45:35.291Z,8.77
2018-03-16T19:48:02.768Z,8.13
2018-03-16T19:50:30.207Z,8.93
2018-03-16T19:52:58.431Z,8.52
2018-03-16T19:55:26.685Z,7.03
2018-03-16T19:57:54.138Z,9.25
2018-03-16T20:00:21.610Z,8.80
2018-03-16T20:02:49.685Z,8.43
2018-03-16T20:05:17.913Z,9.20
2018-03-16T20:07:45.355Z,10.25
2018-03-16T20:10:12.914Z,8.68
2018-03-16T20:12:40.368Z,9.38
2018-03-16T20:15:07.881Z,9.75
2018-03-16T20:17:35.337Z,13.00
2018-03-16T20:20:02.826Z,8.45
2018-03-16T20:22:30.306Z,12.15
2018-03-16T20:24:57.762Z,9.88
2018-03-16T20:27:25.220Z,11.10
2018-03-16T20:29:52.785Z,9.57
2018-03-16T20:32:20.233Z,9.65
2018-03-16T20:34:47.698Z,11.57
2018-03-16T20:37:15.193Z,10.75
2018-03-16T20:39:42.699Z,9.90
2018-03-16T20:42:10.264Z,11.40
2018-03-16T20:44:37.700Z,11.05
2018-03-16T20:47:05.244Z,11.93
2018-03-16T20:49:33.494Z,13.20
2018-03-16T20:52:00.969Z,11.48
2018-03-16T20:54:29.281Z,11.00
2018-03-16T20:56:56.796Z,11.52
2018-03-16T20:59:25.528Z,14.10
2018-03-16T21:01:53.021Z,14.10
2018-03-16T21:04:20.488Z,13.25
2018-03-16T21:06:48.004Z,14.00
2018-03-16T21:09:15.525Z,14.57
2018-03-16T21:11:43.137Z,14.68
2018-03-16T21:14:10.639Z,17.80
2018-03-16T21:16:44.823Z,14.40
2018-03-16T21:19:12.298Z,19.27
2018-03-16T21:21:40.658Z,15.77
2018-03-16T21:24:08.157Z,13.27
2018-03-16T21:26:35.627Z,16.35
2018-03-16T21:29:03.167Z,16.85
2018-03-16T21:31:30.651Z,15.77
2018-03-16T21:33:58.121Z,17.08
2018-03-16T21:36:25.634Z,16.95
2018-03-16T21:38:54.424Z,12.60
2018-03-16T21:41:21.898Z,15.00
2018-03-16T21:43:49.364Z,17.67
2018-03-16T21:46:16.899Z,17.20
2018-03-16T21:48:44.358Z,16.75
2018-03-16T21:51:11.829Z,15.23
2018-03-16T21:53:39.321Z,16.08
2018-03-16T21:56:06.964Z,14.90
2018-03-16T21:58:35.418Z,17.90
2018-03-16T22:01:02.884Z,18.48
2018-03-16T22:03:30.336Z,17.27
2018-03-16T22:05:57.815Z,19.50
2018-03-16T22:08:25.290Z,18.15
2018-03-16T22:10:52.820Z,19.25
2018-03-16T22:13:20.310Z,20.48
2018-03-16T22:15:47.784Z,17.25
2018-03-16T22:18:16.012Z,19.17
2018-03-16T22:20:43.484Z,18.50
2018-03-16T22:23:10.952Z,19.52
2018-03-16T22:25:38.432Z,18.08
2018-03-16T22:28:05.927Z,20.40
2018-03-16T22:30:33.442Z,20.37
2018-03-16T22:33:01.667Z,20.25
2018-03-16T22:35:29.244Z,18.52
2018-03-16T22:37:56.810Z,18.87
2018-03-16T22:40:24.333Z,19.85
2018-03-16T22:42:51.810Z,18.85
2018-03-16T22:45:19.258Z,19.62
2018-03-16T22:47:46.778Z,17.37
2018-03-16T22:50:14.229Z,20.12
2018-03-16T22:52:41.703Z,20.02
2018-03-16T22:55:09.168Z,19.85
2018-03-16T22:57:36.684Z,16.70
2018-03-16T23:00:04.902Z,20.10
2018-03-16T23:02:32.395Z,21.48
2018-03-16T23:04:59.855Z,16.35
2018-03-16T23:07:28.128Z,20.70
2018-03-16T23:09:55.600Z,18.80
2018-03-16T23:12:24.636Z,19.45
2018-03-16T23:14:52.395Z,19.48
2018-03-16T23:17:19.853Z,20.23
2018-03-16T23:19:47.312Z,18.20
2018-03-16T23:22:14.947Z,19.95
2018-03-16T23:24:42.437Z,17.90
2018-03-16T23:27:09.883Z,18.37
2018-03-16T23:29:37.366Z,20.70
2018-03-16T23:32:04.841Z,16.55
2018-03-16T23:34:32.343Z,18.02
2018-03-16T23:36:59.792Z,19.40
2018-03-16T23:39:27.304Z,22.10
2018-03-16T23:41:54.821Z,18.80
2018-03-16T23:44:22.260Z,17.98
2018-03-16T23:46:50.547Z,18.55
2018-03-16T23:49:18.010Z,16.60
2018-03-16T23:51:45.612Z,19.83
2018-03-16T23:54:13.836Z,18.37
2018-03-16T23:56:41.308Z,17.65
2018-03-16T23:59:08.784Z,17.15
